Time;durP1;ratioP1;P1;durP2;ratioP2;P2;SDS_P1;SDS_P2;PMS_P1;PMS_P2;Temp;Humidity;BMP_temperature;BMP_pressure;BME280_temperature;BME280_humidity;BME280_pressure;Samples;Min_cycle;Max_cycle;Signal;HPM_P1;HPM_P2
2021/01/27 00:01:31;;;;;;;25.73;16.23;;;;;;;0.33;70.78;93928.84;4920748;29;20515;-81
2021/01/27 00:03:56;;;;;;;26.42;14.77;;;;;;;0.29;71.39;93932.75;4935120;29;20102;-81
2021/01/27 00:06:22;;;;;;;25.23;15.45;;;;;;;0.31;70.44;93920.56;4920039;29;20562;-81
2021/01/27 00:08:47;;;;;;;40.78;18.70;;;;;;;0.33;70.52;93923.75;4921380;29;20102;-81
2021/01/27 00:11:13;;;;;;;25.70;15.88;;;;;;;0.35;69.69;93911.53;4905724;29;20051;-80
2021/01/27 00:13:38;;;;;;;32.92;16.73;;;;;;;0.29;70.60;93932.75;4904442;29;20059;-81
2021/01/27 00:16:04;;;;;;;39.83;19.55;;;;;;;0.38;70.21;93933.38;4938512;29;20039;-80
2021/01/27 00:18:32;;;;;;;30.33;16.10;;;;;;;0.37;69.72;93919.81;4921664;29;20947;-82
2021/01/27 00:20:57;;;;;;;24.83;14.07;;;;;;;0.40;69.98;93924.53;4904741;29;20035;-81
2021/01/27 00:23:23;;;;;;;22.88;14.52;;;;;;;0.49;69.79;93928.53;4920567;29;20271;-82
2021/01/27 00:25:48;;;;;;;26.55;14.95;;;;;;;0.54;69.39;93930.50;4937846;29;20488;-82
2021/01/27 00:28:14;;;;;;;25.15;13.90;;;;;;;0.57;68.70;93930.91;4905480;29;20059;-82
2021/01/27 00:30:40;;;;;;;21.27;13.23;;;;;;;0.55;68.73;93922.63;4905158;29;20343;-81
2021/01/27 00:33:06;;;;;;;16.45;11.57;;;;;;;0.55;68.50;93925.19;4904152;29;20546;-81
2021/01/27 00:38:30;;;;;;;21.67;14.43;;;;;;;0.42;70.02;93937.91;4922600;29;20059;-81
2021/01/27 00:40:56;;;;;;;25.38;14.27;;;;;;;0.52;68.48;93933.25;4905092;29;20040;-82
2021/01/27 00:43:43;;;;;;;20.48;12.88;;;;;;;0.56;69.73;93924.19;4886245;29;20037;-82
2021/01/27 00:46:09;;;;;;;21.83;12.93;;;;;;;0.55;69.00;93922.63;4909795;29;20048;-82
2021/01/27 00:48:34;;;;;;;16.80;11.40;;;;;;;0.50;69.17;93929.31;4900029;29;20401;-82
2021/01/27 00:51:00;;;;;;;18.75;11.82;;;;;;;0.49;69.55;93922.63;4886600;29;20132;-82
2021/01/27 00:53:31;;;;;;;19.40;12.68;;;;;;;0.51;69.11;93918.88;4886616;29;20040;-82
2021/01/27 00:55:57;;;;;;;19.02;12.00;;;;;;;0.43;68.99;93919.03;4901569;29;20046;-82
2021/01/27 00:58:22;;;;;;;22.48;12.35;;;;;;;0.44;69.17;93915.50;4900317;29;20426;-82
2021/01/27 01:00:48;;;;;;;17.83;12.73;;;;;;;0.43;68.99;93916.47;4892963;29;20048;-80
2021/01/27 01:03:13;;;;;;;22.05;13.77;;;;;;;0.40;70.17;93919.44;4924654;23;20061;-82
2021/01/27 01:05:41;;;;;;;21.08;12.35;;;;;;;0.44;68.97;93920.63;4924986;29;20032;-81
2021/01/27 01:08:07;;;;;;;18.10;12.90;;;;;;;0.36;70.66;93918.22;4918010;29;20040;-81
2021/01/27 01:10:38;;;;;;;17.48;12.48;;;;;;;0.47;69.46;93925.34;4912487;29;20127;-81
2021/01/27 01:13:12;;;;;;;18.90;12.77;;;;;;;0.46;69.11;93918.66;4915737;29;20130;-80
2021/01/27 01:15:37;;;;;;;21.03;13.70;;;;;;;0.38;70.18;93916.28;4914197;29;20052;-81
2021/01/27 01:18:03;;;;;;;18.38;11.68;;;;;;;0.40;69.41;93913.53;4916383;29;20051;-80
2021/01/27 01:20:28;;;;;;;18.08;12.98;;;;;;;0.43;70.53;93921.59;4900260;29;20079;-81
2021/01/27 01:22:56;;;;;;;17.20;12.57;;;;;;;0.42;69.78;93920.00;4917712;29;20044;-81
2021/01/27 01:25:22;;;;;;;17.10;12.02;;;;;;;0.37;69.90;93919.03;4923323;29;20080;-81
2021/01/27 01:27:48;;;;;;;17.70;11.95;;;;;;;0.33;70.15;93913.50;4923426;29;20071;-81
2021/01/27 01:30:38;;;;;;;18.92;12.18;;;;;;;0.24;70.51;93919.75;4904587;29;20528;-81
2021/01/27 01:33:08;;;;;;;18.95;12.48;;;;;;;0.25;71.89;93914.44;4903447;29;20032;-81
2021/01/27 01:35:33;;;;;;;17.00;12.00;;;;;;;0.28;70.72;93913.28;4920916;29;20048;-82
2021/01/27 01:37:59;;;;;;;14.93;11.07;;;;;;;0.30;71.24;93908.75;4917466;23;20043;-81
2021/01/27 01:40:26;;;;;;;15.55;11.27;;;;;;;0.34;70.47;93897.19;4947450;29;20043;-81
2021/01/27 01:43:19;;;;;;;18.48;12.55;;;;;;;0.27;71.47;93889.47;4917606;29;20031;-81
2021/01/27 01:45:45;;;;;;;19.35;12.90;;;;;;;0.28;71.34;93892.81;4938474;29;20050;-81
2021/01/27 01:48:17;;;;;;;19.42;11.80;;;;;;;0.22;71.86;93886.72;4935726;29;20040;-81
2021/01/27 01:50:43;;;;;;;22.02;13.70;;;;;;;0.20;71.34;93898.09;4938308;29;20114;-81
2021/01/27 01:53:08;;;;;;;18.40;11.95;;;;;;;0.25;70.76;93888.88;4904476;29;20040;-82
2021/01/27 01:55:34;;;;;;;25.27;14.75;;;;;;;0.24;72.21;93894.19;4936295;29;20044;-82
2021/01/27 01:57:59;;;;;;;20.08;11.65;;;;;;;0.25;71.25;93890.66;4920522;29;20052;-82
2021/01/27 02:00:32;;;;;;;14.85;11.02;;;;;;;0.20;71.25;93893.78;4921207;29;20122;-82
2021/01/27 02:02:57;;;;;;;14.23;10.95;;;;;;;0.21;71.35;93879.22;4926148;29;20054;-80
2021/01/27 02:05:24;;;;;;;12.95;11.02;;;;;;;0.21;71.29;93890.25;4880235;29;20028;-81
2021/01/27 02:07:50;;;;;;;14.50;10.57;;;;;;;0.18;71.94;93884.72;4893883;29;20040;-82
2021/01/27 02:10:16;;;;;;;16.80;11.43;;;;;;;0.23;71.94;93892.59;4895952;29;20032;-81
2021/01/27 02:13:00;;;;;;;14.57;10.27;;;;;;;0.15;72.02;93887.66;4895049;29;20080;-81
2021/01/27 02:16:01;;;;;;;14.82;11.82;;;;;;;0.11;72.71;93883.91;4927921;29;20032;-81
2021/01/27 02:18:42;;;;;;;12.93;10.57;;;;;;;0.18;72.58;93889.84;4909205;29;20051;-81
2021/01/27 02:21:30;;;;;;;14.55;10.98;;;;;;;0.24;72.38;93894.19;4928643;29;20119;-81
2021/01/27 02:24:23;;;;;;;12.63;10.15;;;;;;;0.34;72.02;93879.28;4924829;29;20511;-81
2021/01/27 02:27:22;;;;;;;13.75;11.15;;;;;;;0.39;72.07;93897.38;4926393;29;20160;-81
2021/01/27 02:29:56;;;;;;;15.05;11.90;;;;;;;0.40;71.64;93896.41;4924435;29;20044;-80
2021/01/27 02:35:33;;;;;;;14.45;10.70;;;;;;;0.52;70.92;93897.44;5239329;23;20079;-81
2021/01/27 02:38:02;;;;;;;15.38;10.05;;;;;;;0.49;71.17;93897.84;4928073;29;20240;-79
2021/01/27 02:43:21;;;;;;;12.65;9.90;;;;;;;0.43;71.22;93908.81;4950431;23;20631;-79
2021/01/27 02:45:49;;;;;;;14.15;11.25;;;;;;;0.43;71.63;93911.38;4898761;29;20093;-80
2021/01/27 02:51:19;;;;;;;14.45;10.57;;;;;;;0.42;72.46;93919.22;5944121;23;20026;-81
2021/01/27 02:53:52;;;;;;;16.63;10.05;;;;;;;0.41;72.00;93931.22;4920154;29;20537;-80
2021/01/27 02:56:25;;;;;;;14.50;10.18;;;;;;;0.46;73.25;93928.09;4915241;29;20048;-80
2021/01/27 02:58:58;;;;;;;12.80;10.63;;;;;;;0.47;71.77;93914.31;4915241;29;20074;-80
2021/01/27 03:01:30;;;;;;;11.48;9.55;;;;;;;0.40;72.00;93921.97;4930633;29;20122;-82
2021/01/27 03:04:07;;;;;;;15.90;10.48;;;;;;;0.37;72.28;93922.38;4916070;29;20079;-81
2021/01/27 03:06:33;;;;;;;15.60;9.88;;;;;;;0.36;72.27;93928.47;4927832;29;20035;-82
2021/01/27 03:09:03;;;;;;;14.55;10.70;;;;;;;0.42;71.55;93925.13;4929618;29;20066;-81
2021/01/27 03:11:31;;;;;;;13.70;10.40;;;;;;;0.36;72.68;93931.03;4948966;29;20122;-81
2021/01/27 03:13:56;;;;;;;17.58;10.95;;;;;;;0.41;72.50;93930.44;5754503;23;20044;-82
2021/01/27 03:16:45;;;;;;;14.30;10.27;;;;;;;0.45;72.20;93934.97;4899368;29;20126;-80
2021/01/27 03:19:20;;;;;;;14.75;9.88;;;;;;;0.52;71.59;93932.47;4910554;29;20480;-81
2021/01/27 03:21:48;;;;;;;12.20;9.45;;;;;;;0.49;72.85;93937.97;4895305;29;20032;-80
2021/01/27 03:24:19;;;;;;;12.63;9.93;;;;;;;0.53;71.75;93939.94;4893313;29;20539;-81
2021/01/27 03:26:51;;;;;;;14.20;9.27;;;;;;;0.48;72.25;93942.25;4894375;29;20032;-80
2021/01/27 03:29:37;;;;;;;13.98;9.40;;;;;;;0.46;72.95;93936.56;4918439;29;20046;-81
2021/01/27 03:32:05;;;;;;;10.30;9.18;;;;;;;0.30;73.42;93939.44;4919705;29;20429;-80
2021/01/27 03:34:39;;;;;;;11.80;9.20;;;;;;;0.27;74.14;93935.50;4897540;29;20044;-81
2021/01/27 03:37:18;;;;;;;17.42;10.32;;;;;;;0.22;73.59;93942.16;4908826;29;20040;-83
2021/01/27 03:39:43;;;;;;;12.63;10.02;;;;;;;0.24;74.27;93945.31;4902036;29;20039;-83
2021/01/27 03:42:14;;;;;;;15.10;11.02;;;;;;;0.16;74.74;93943.72;4892538;29;20040;-81
2021/01/27 03:44:45;;;;;;;14.13;9.48;;;;;;;0.31;73.37;93958.91;4909648;29;20024;-83
2021/01/27 03:47:36;;;;;;;10.48;9.38;;;;;;;0.38;74.01;93956.41;4895205;29;20043;-83
2021/01/27 03:50:10;;;;;;;14.57;9.30;;;;;;;0.37;73.53;93973.50;4913555;29;20059;-81
2021/01/27 03:52:39;;;;;;;12.15;10.05;;;;;;;0.42;73.86;93968.59;4913310;29;20088;-82
2021/01/27 03:55:26;;;;;;;13.15;10.52;;;;;;;0.48;73.36;93961.94;4912724;29;20033;-81
2021/01/27 03:57:57;;;;;;;12.20;9.93;;;;;;;0.44;75.24;93976.88;4895907;29;20047;-81
2021/01/27 04:00:30;;;;;;;12.60;9.57;;;;;;;0.48;73.24;93964.50;4918681;29;20499;-81
2021/01/27 04:03:17;;;;;;;12.20;8.65;;;;;;;0.52;73.07;93974.16;5171728;23;20043;-80
2021/01/27 04:05:42;;;;;;;11.00;9.48;;;;;;;0.48;73.27;93967.84;4947723;29;20039;-77
2021/01/27 04:08:08;;;;;;;11.65;8.55;;;;;;;0.45;74.43;93970.78;4928626;29;20038;-79
2021/01/27 04:10:33;;;;;;;10.77;8.75;;;;;;;0.44;73.59;93971.75;4925398;29;20044;-79
2021/01/27 04:12:59;;;;;;;13.63;9.57;;;;;;;0.41;73.73;93967.03;5014087;23;20048;-81
2021/01/27 04:15:24;;;;;;;13.18;9.88;;;;;;;0.42;73.42;93973.72;4927467;29;20523;-78
2021/01/27 04:17:50;;;;;;;13.55;9.50;;;;;;;0.36;73.10;93971.94;4931366;29;20487;-77
2021/01/27 04:20:15;;;;;;;16.08;9.48;;;;;;;0.37;72.97;93976.06;4938506;29;20051;-80
2021/01/27 04:22:41;;;;;;;10.25;8.57;;;;;;;0.33;72.69;93979.19;4926399;29;20046;-80
2021/01/27 04:25:07;;;;;;;13.75;9.18;;;;;;;0.28;72.98;93982.31;4940441;29;20028;-79
2021/01/27 04:27:33;;;;;;;17.67;10.48;;;;;;;0.30;73.37;93980.34;4940116;29;20027;-80
2021/01/27 04:29:58;;;;;;;18.02;11.38;;;;;;;0.43;73.58;93979.63;4948447;28;20040;-80
2021/01/27 04:32:24;;;;;;;13.13;10.52;;;;;;;0.53;72.66;93980.06;4942208;28;20039;-80
2021/01/27 04:37:18;;;;;;;14.00;10.45;;;;;;;0.59;71.16;93974.19;5036942;23;20066;-81
2021/01/27 04:39:44;;;;;;;14.40;10.35;;;;;;;0.50;70.94;93970.22;4956752;29;20047;-85
2021/01/27 04:42:09;;;;;;;15.90;9.55;;;;;;;0.25;71.25;93982.69;4923463;29;20043;-79
2021/01/27 04:44:35;;;;;;;13.40;9.85;;;;;;;0.23;71.32;93982.09;4923812;29;20118;-79
2021/01/27 04:47:08;;;;;;;13.07;10.50;;;;;;;0.23;71.43;93979.53;4956041;29;20223;-79
2021/01/27 04:49:43;;;;;;;12.18;9.63;;;;;;;0.22;71.24;93990.75;4938205;29;20039;-79
2021/01/27 04:52:12;;;;;;;14.13;10.02;;;;;;;0.18;71.96;93997.22;4913867;28;20035;-79
2021/01/27 04:55:10;;;;;;;13.57;9.65;;;;;;;0.10;72.11;94002.47;4945635;29;20035;-80
2021/01/27 04:58:03;;;;;;;14.82;10.40;;;;;;;-0.01;72.74;94008.88;4940041;29;20034;-80
2021/01/27 05:00:43;;;;;;;13.77;9.75;;;;;;;-0.01;72.81;94008.88;4961356;29;20035;-80
2021/01/27 05:03:39;;;;;;;14.10;10.25;;;;;;;-0.07;72.08;94015.53;4937832;29;20062;-78
2021/01/27 05:06:06;;;;;;;13.95;10.18;;;;;;;-0.18;73.63;94005.81;4925551;29;20038;-79
2021/01/27 05:08:35;;;;;;;11.50;8.77;;;;;;;-0.26;73.49;94018.72;4945622;29;20023;-78
2021/01/27 05:11:05;;;;;;;11.00;8.43;;;;;;;-0.37;73.20;94003.88;4945486;29;20075;-79
2021/01/27 05:13:39;;;;;;;12.32;9.55;;;;;;;-0.38;73.92;94015.09;4930923;29;20050;-79
2021/01/27 05:16:10;;;;;;;14.63;9.65;;;;;;;-0.35;73.26;94009.59;4925383;29;20045;-79
2021/01/27 05:18:36;;;;;;;13.32;10.27;;;;;;;-0.38;73.80;94007.41;4901347;29;20034;-80
2021/01/27 05:21:01;;;;;;;12.13;9.18;;;;;;;-0.33;72.10;94016.13;4957398;29;20499;-79
2021/01/27 05:23:27;;;;;;;21.77;10.65;;;;;;;-0.38;72.33;94015.09;4939332;29;20438;-80
2021/01/27 05:26:00;;;;;;;12.20;9.77;;;;;;;-0.42;72.07;94006.22;4923174;29;20063;-80
2021/01/27 05:28:28;;;;;;;14.30;10.43;;;;;;;-0.32;71.33;94016.91;4957098;29;20047;-79
2021/01/27 05:30:55;;;;;;;19.33;10.02;;;;;;;-0.27;72.04;94024.81;4907910;29;20059;-80
2021/01/27 05:33:40;;;;;;;14.40;9.15;;;;;;;-0.23;69.93;94020.91;4940291;29;20114;-80
2021/01/27 05:36:23;;;;;;;14.43;9.48;;;;;;;-0.26;69.29;94036.59;4918069;29;20073;-79
2021/01/27 05:38:49;;;;;;;12.90;10.00;;;;;;;-0.27;70.38;94047.81;4957028;28;20031;-79
2021/01/27 05:41:27;;;;;;;14.05;9.23;;;;;;;-0.22;69.16;94045.47;4958132;29;20039;-79
2021/01/27 05:43:54;;;;;;;14.60;10.50;;;;;;;-0.16;68.58;94054.97;4959194;28;20572;-78
2021/01/27 05:46:33;;;;;;;21.83;10.00;;;;;;;-0.06;68.88;94052.09;4912478;29;20050;-78
2021/01/27 05:48:59;;;;;;;14.95;10.48;;;;;;;0.03;68.96;94056.09;4916782;29;20032;-78
2021/01/27 05:51:34;;;;;;;22.85;11.20;;;;;;;0.10;68.12;94051.81;4958331;29;20040;-79
2021/01/27 05:54:00;;;;;;;24.67;12.32;;;;;;;0.16;67.77;94051.09;4957027;29;20027;-79
2021/01/27 05:56:26;;;;;;;14.23;9.85;;;;;;;0.28;66.56;94053.91;4922876;29;20031;-80
2021/01/27 05:59:01;;;;;;;11.75;8.77;;;;;;;0.32;66.09;94049.97;4930904;29;20023;-79
2021/01/27 06:01:46;;;;;;;19.05;13.45;;;;;;;0.41;65.08;94046.31;4908136;29;20032;-79
2021/01/27 06:04:12;;;;;;;13.70;10.43;;;;;;;0.30;64.66;94051.94;4939674;29;20031;-79
2021/01/27 06:06:46;;;;;;;16.40;10.55;;;;;;;0.25;65.43;94049.94;4957876;29;20056;-79
2021/01/27 06:09:11;;;;;;;17.08;10.93;;;;;;;0.19;64.99;94050.72;4957925;29;20066;-80
2021/01/27 06:11:37;;;;;;;18.65;11.65;;;;;;;0.17;64.97;94062.88;4958854;29;20035;-80
2021/01/27 06:16:43;;;;;;;15.57;9.30;;;;;;;0.13;65.04;94065.97;4938443;29;20052;-81
2021/01/27 06:19:27;;;;;;;14.40;9.55;;;;;;;0.16;64.23;94052.81;4921031;29;20044;-80
2021/01/27 06:22:07;;;;;;;20.17;12.20;;;;;;;0.19;64.77;94060.16;4894773;29;20068;-81
2021/01/27 06:24:48;;;;;;;15.27;11.23;;;;;;;0.20;64.63;94052.28;4918457;29;20032;-82
2021/01/27 06:30:21;;;;;;;13.00;8.93;;;;;;;0.25;63.61;94055.06;4972995;23;20468;-79
2021/01/27 06:33:01;;;;;;;13.55;8.25;;;;;;;0.19;64.12;94065.25;4950598;28;20035;-81
2021/01/27 06:35:37;;;;;;;14.73;9.82;;;;;;;0.12;63.40;94049.06;4946362;29;20031;-80
2021/01/27 06:38:09;;;;;;;13.50;9.50;;;;;;;0.12;64.68;94064.41;4914042;29;20027;-81
2021/01/27 06:40:50;;;;;;;17.87;10.67;;;;;;;0.18;64.25;94048.34;4930526;29;20067;-80
2021/01/27 06:43:46;;;;;;;15.05;9.95;;;;;;;0.10;64.31;94045.91;4941238;29;20039;-79
2021/01/27 06:46:46;;;;;;;21.45;13.27;;;;;;;0.12;64.50;94049.06;4943732;29;20055;-82
2021/01/27 06:49:49;;;;;;;16.85;10.18;;;;;;;0.13;64.34;94054.00;4918415;29;20354;-81
2021/01/27 06:52:20;;;;;;;;;;;;;;;0.12;63.85;94049.06;4948666;28;20062;-81
2021/01/27 06:54:48;;;;;;;26.80;14.82;;;;;;;0.11;63.96;94047.50;4914594;29;19970;-79
2021/01/27 06:57:23;;;;;;;17.17;12.13;;;;;;;0.14;63.36;94058.13;4956939;28;20062;-82
2021/01/27 07:00:30;;;;;;;18.13;11.60;;;;;;;0.08;63.99;94048.66;4931681;29;20043;-82
2021/01/27 07:03:17;;;;;;;16.45;10.90;;;;;;;0.18;63.85;94053.47;4947455;29;20050;-83
2021/01/27 07:05:42;;;;;;;16.73;10.82;;;;;;;0.27;63.45;94047.22;4939018;29;20027;-82
2021/01/27 07:08:26;;;;;;;16.63;11.23;;;;;;;0.35;62.28;94049.63;5003211;23;20044;-80
2021/01/27 07:11:03;;;;;;;20.45;13.60;;;;;;;0.40;62.48;94044.72;4940395;29;20040;-80
2021/01/27 07:13:47;;;;;;;30.45;15.57;;;;;;;0.50;63.35;94064.88;4923205;29;20059;-80
2021/01/27 07:16:38;;;;;;;23.05;14.75;;;;;;;0.62;61.96;94071.00;4925512;29;20411;-80
2021/01/27 07:19:22;;;;;;;33.03;19.35;;;;;;;0.68;61.30;94069.50;4935351;29;20456;-80
2021/01/27 07:22:03;;;;;;;27.48;17.20;;;;;;;0.75;61.36;94070.31;4934831;29;20522;-80
2021/01/27 07:24:33;;;;;;;23.77;12.70;;;;;;;0.74;59.41;94069.50;4939992;29;20036;-80
2021/01/27 07:27:06;;;;;;;21.88;14.73;;;;;;;0.64;60.15;94083.63;4928060;29;20036;-80
2021/01/27 07:29:38;;;;;;;25.13;13.85;;;;;;;0.60;60.24;94080.66;4925519;29;20102;-81
2021/01/27 07:32:08;;;;;;;26.17;16.55;;;;;;;0.62;60.86;94083.00;4893758;29;20036;-80
2021/01/27 07:34:41;;;;;;;29.65;18.77;;;;;;;0.64;60.96;94081.84;4922340;29;20032;-81
2021/01/27 07:37:09;;;;;;;;;;;;;;;0.67;60.39;94083.25;4907207;29;20039;-80
2021/01/27 07:39:38;;;;;;;25.52;14.88;;;;;;;0.80;59.63;94088.41;4924159;29;19918;-80
2021/01/27 07:42:11;;;;;;;21.25;13.05;;;;;;;0.86;59.72;94085.13;4924730;29;20060;-80
2021/01/27 07:44:37;;;;;;;35.28;19.80;;;;;;;0.94;59.14;94079.84;4922899;29;20035;-81
2021/01/27 07:47:16;;;;;;;40.58;21.70;;;;;;;1.05;57.83;94075.94;4908451;29;20040;-81
2021/01/27 07:49:45;;;;;;;43.65;23.05;;;;;;;1.05;59.89;94079.31;4924871;29;20040;-81
2021/01/27 07:52:20;;;;;;;34.00;19.58;;;;;;;1.17;57.64;94071.88;4893026;29;20070;-81
2021/01/27 07:54:48;;;;;;;46.72;25.75;;;;;;;1.33;58.56;94088.66;4900317;29;20039;-81
2021/01/27 07:57:40;;;;;;;44.05;25.90;;;;;;;1.46;58.73;94084.38;4908320;29;20055;-82
2021/01/27 08:00:32;;;;;;;29.75;17.85;;;;;;;1.60;57.47;94085.16;4916495;29;20051;-80
2021/01/27 08:03:23;;;;;;;37.85;18.80;;;;;;;1.57;56.72;94085.56;4922873;29;20040;-81
2021/01/27 08:05:48;;;;;;;33.45;16.80;;;;;;;1.58;57.08;94087.13;4922959;29;20658;-82
2021/01/27 08:08:19;;;;;;;38.28;19.75;;;;;;;1.63;56.40;94084.00;4908490;29;20043;-81
2021/01/27 08:10:44;;;;;;;44.72;20.95;;;;;;;1.78;56.04;94089.72;4907742;29;20529;-83
2021/01/27 08:13:19;;;;;;;30.30;16.95;;;;;;;1.83;56.20;94101.97;4923969;29;20063;-81
2021/01/27 08:16:08;;;;;;;31.70;16.50;;;;;;;1.92;56.21;94093.88;4922895;29;20020;-82
2021/01/27 08:18:33;;;;;;;23.33;14.27;;;;;;;1.95;55.02;94095.25;4924596;29;20068;-83
2021/01/27 08:21:33;;;;;;;20.38;13.48;;;;;;;1.91;54.60;94084.63;4907478;29;20501;-81
2021/01/27 08:23:59;;;;;;;16.95;12.65;;;;;;;1.84;55.43;94086.41;4885459;29;20044;-82
2021/01/27 08:26:43;;;;;;;15.95;11.25;;;;;;;1.87;56.13;94096.25;4909700;29;20047;-81
2021/01/27 08:29:09;;;;;;;25.60;16.65;;;;;;;1.86;55.53;94089.56;4923931;29;20040;-82
2021/01/27 08:31:34;;;;;;;28.83;15.63;;;;;;;1.97;54.98;94085.63;4893805;29;20091;-80
2021/01/27 08:34:12;;;;;;;17.85;11.57;;;;;;;2.12;55.54;94088.00;4925334;29;20035;-81
2021/01/27 08:36:37;;;;;;;22.00;12.18;;;;;;;2.17;55.74;94090.75;4923371;29;20047;-79
2021/01/27 08:39:11;;;;;;;24.80;14.80;;;;;;;2.22;54.33;94090.94;4917471;29;20040;-81
2021/01/27 08:42:00;;;;;;;28.75;17.42;;;;;;;2.26;55.31;94090.34;4903228;29;20047;-81
2021/01/27 08:44:26;;;;;;;37.90;23.35;;;;;;;2.52;54.01;94084.41;4893219;29;20063;-82
2021/01/27 08:47:26;;;;;;;36.85;22.10;;;;;;;2.72;53.95;94081.78;4904545;29;20064;-81
2021/01/27 08:49:58;;;;;;;31.85;17.83;;;;;;;2.78;52.94;94078.44;4931238;29;20028;-81
2021/01/27 08:52:26;;;;;;;;;;;;;;;2.76;53.11;94075.25;4899126;29;20036;-82
2021/01/27 08:54:52;;;;;;;29.30;17.38;;;;;;;2.75;52.74;94078.81;4932886;29;19971;-80
2021/01/27 08:57:30;;;;;;;22.00;13.32;;;;;;;2.69;52.64;94082.19;4921529;29;20040;-78
2021/01/27 09:00:33;;;;;;;31.33;15.82;;;;;;;2.70;52.61;94087.13;4947729;23;20047;-78
2021/01/27 09:03:02;;;;;;;35.60;17.85;;;;;;;2.67;53.84;94099.59;4909397;29;20066;-78
2021/01/27 09:05:27;;;;;;;26.67;16.00;;;;;;;2.80;52.80;94097.00;4919431;29;20035;-78
2021/01/27 09:08:11;;;;;;;30.05;17.45;;;;;;;2.75;52.59;94094.22;4936017;29;20032;-78
2021/01/27 09:10:37;;;;;;;45.97;23.85;;;;;;;2.65;54.68;94094.66;4938615;29;20032;-78
2021/01/27 09:13:33;;;;;;;43.38;21.48;;;;;;;2.63;53.78;94090.72;4971518;23;20074;-78
2021/01/27 09:16:14;;;;;;;37.92;18.58;;;;;;;2.57;53.89;94099.19;4949113;29;20507;-78
2021/01/27 09:18:39;;;;;;;29.52;15.38;;;;;;;2.54;53.32;94097.03;4930036;29;20122;-78
2021/01/27 09:21:10;;;;;;;31.73;17.25;;;;;;;2.66;53.27;94100.56;4918033;29;20099;-78
2021/01/27 09:23:35;;;;;;;26.63;15.40;;;;;;;2.71;53.37;94098.97;4928925;29;20062;-78
2021/01/27 09:26:03;;;;;;;31.33;17.85;;;;;;;2.73;53.08;94106.47;4932049;29;20415;-78
2021/01/27 09:28:29;;;;;;;32.20;17.40;;;;;;;2.74;54.15;94113.19;4937892;29;20039;-78
2021/01/27 09:30:55;;;;;;;20.27;12.52;;;;;;;2.73;53.59;94116.75;4938436;29;20071;-78
2021/01/27 09:33:34;;;;;;;23.75;15.38;;;;;;;2.72;53.38;94122.88;4912666;29;20035;-78
2021/01/27 09:36:10;;;;;;;42.60;24.30;;;;;;;2.62;54.35;94122.50;4925541;29;20093;-79
2021/01/27 09:38:36;;;;;;;47.45;26.83;;;;;;;2.71;53.65;94121.28;4929023;29;20046;-77
2021/01/27 09:41:10;;;;;;;38.05;22.30;;;;;;;2.65;54.36;94129.81;4951469;29;20050;-76
2021/01/27 09:43:41;;;;;;;35.53;22.35;;;;;;;2.77;55.45;94138.47;4928176;29;20039;-78
2021/01/27 09:46:25;;;;;;;44.45;18.70;;;;;;;2.89;53.68;94149.69;4937388;29;20042;-79
2021/01/27 09:48:51;;;;;;;20.15;11.45;;;;;;;2.83;53.79;94144.59;4910361;29;20123;-79
2021/01/27 09:51:17;;;;;;;13.80;9.48;;;;;;;2.72;53.99;94140.84;4918551;29;20031;-77
2021/01/27 09:53:44;;;;;;;16.83;12.32;;;;;;;2.70;55.28;94150.53;4937245;29;20023;-79
2021/01/27 09:56:17;;;;;;;37.20;21.80;;;;;;;2.80;54.60;94138.06;4949269;28;20384;-77
2021/01/27 09:58:42;;;;;;;27.55;12.27;;;;;;;2.72;54.44;94140.84;4924613;29;20030;-78
2021/01/27 10:01:16;;;;;;;25.20;13.50;;;;;;;2.68;55.09;94134.53;4914338;29;20039;-78
2021/01/27 10:03:45;;;;;;;16.30;11.35;;;;;;;2.81;54.59;94139.66;4928253;29;20036;-78
2021/01/27 10:06:48;;;;;;;17.80;10.00;;;;;;;2.73;54.77;94127.00;4935155;29;20034;-78
2021/01/27 10:09:16;;;;;;;24.27;14.40;;;;;;;2.72;54.76;94133.13;4952208;29;20056;-78
2021/01/27 10:11:41;;;;;;;21.45;14.80;;;;;;;2.47;55.17;94122.72;4929815;29;20411;-78
2021/01/27 10:14:09;;;;;;;41.47;22.52;;;;;;;2.53;55.64;94108.28;4954776;29;20035;-78
2021/01/27 10:16:49;;;;;;;48.33;27.15;;;;;;;2.68;54.72;94116.56;4920112;29;20028;-78
2021/01/27 10:19:31;;;;;;;62.33;29.92;;;;;;;2.72;55.11;94123.66;4955549;29;20066;-78
2021/01/27 10:21:57;;;;;;;19.50;10.90;;;;;;;2.59;54.98;94120.31;4951882;28;20031;-78
2021/01/27 10:24:41;;;;;;;19.13;13.73;;;;;;;2.58;55.65;94114.41;4920177;29;20032;-78
2021/01/27 10:27:06;;;;;;;17.13;10.52;;;;;;;2.54;54.66;94123.50;4945027;29;20036;-77
2021/01/27 10:29:41;;;;;;;17.63;11.05;;;;;;;2.52;53.92;94114.41;4925769;29;20031;-77
2021/01/27 10:32:31;;;;;;;20.83;12.80;;;;;;;2.36;55.76;94118.97;4947825;29;20024;-77
2021/01/27 10:34:57;;;;;;;19.75;12.05;;;;;;;2.41;56.09;94113.22;4940083;29;20463;-78
2021/01/27 10:37:35;;;;;;;46.08;23.08;;;;;;;2.52;56.63;94116.97;4948995;28;20036;-78
2021/01/27 10:40:12;;;;;;;35.45;17.00;;;;;;;2.70;55.16;94112.81;4912489;29;20046;-79
2021/01/27 10:42:45;;;;;;;29.85;16.38;;;;;;;2.72;55.78;94115.16;4932055;29;20467;-78
2021/01/27 10:45:21;;;;;;;28.77;14.68;;;;;;;2.93;55.87;94111.59;4951871;29;20159;-78
2021/01/27 10:48:07;;;;;;;40.33;20.65;;;;;;;3.09;54.19;94110.34;4934361;29;20130;-78
2021/01/27 10:50:32;;;;;;;40.22;20.20;;;;;;;3.23;55.71;94111.88;4947493;28;20115;-78
2021/01/27 10:53:03;;;;;;;39.35;19.80;;;;;;;3.53;54.42;94110.34;4944245;29;20047;-78
2021/01/27 10:55:37;;;;;;;25.73;13.52;;;;;;;3.64;52.79;94105.56;4935845;29;20067;-78
2021/01/27 10:58:03;;;;;;;13.18;9.00;;;;;;;3.58;52.23;94100.28;4929837;29;20032;-78
2021/01/27 11:00:29;;;;;;;16.80;10.68;;;;;;;3.46;53.05;94109.63;4945797;29;20043;-78
2021/01/27 11:02:54;;;;;;;19.30;9.38;;;;;;;3.37;52.82;94103.13;4945047;29;20102;-77
2021/01/27 11:05:20;;;;;;;13.93;9.23;;;;;;;3.22;53.91;94110.28;4928662;29;20484;-79
2021/01/27 11:07:45;;;;;;;27.95;16.40;;;;;;;3.31;54.07;94124.50;4928327;29;20063;-79
2021/01/27 11:10:11;;;;;;;39.60;22.02;;;;;;;3.51;54.48;94117.50;4926739;29;20039;-78
2021/01/27 11:12:37;;;;;;;29.00;18.00;;;;;;;3.65;52.37;94112.28;4934242;29;20028;-77
2021/01/27 11:15:05;;;;;;;26.90;15.10;;;;;;;3.52;52.51;94116.50;4926277;29;20028;-78
2021/01/27 11:17:31;;;;;;;24.38;15.02;;;;;;;3.50;53.53;94117.69;4944062;29;20114;-78
2021/01/27 11:19:56;;;;;;;15.98;11.13;;;;;;;3.54;53.56;94124.78;4929166;29;20426;-79
2021/01/27 11:22:21;;;;;;;31.90;17.05;;;;;;;3.64;52.63;94119.22;4947264;29;20444;-78
2021/01/27 11:24:47;;;;;;;13.80;10.85;;;;;;;3.40;53.58;94112.97;4945869;29;20089;-78
2021/01/27 11:27:16;;;;;;;29.80;15.93;;;;;;;3.30;52.77;94116.00;4921436;29;20079;-78
2021/01/27 11:29:41;;;;;;;23.30;12.60;;;;;;;3.24;53.36;94116.00;4937867;29;20035;-78
2021/01/27 11:32:06;;;;;;;28.65;15.73;;;;;;;3.10;53.19;94110.16;4928698;29;20027;-79
2021/01/27 11:34:32;;;;;;;23.55;14.68;;;;;;;3.10;54.08;94117.06;4935594;29;20436;-78
2021/01/27 11:36:57;;;;;;;22.77;12.43;;;;;;;3.20;53.31;94107.13;4928757;28;20034;-78
2021/01/27 11:39:23;;;;;;;35.83;20.48;;;;;;;3.35;54.34;94109.47;4929551;29;20065;-79
2021/01/27 11:41:51;;;;;;;33.38;20.23;;;;;;;3.40;53.83;94110.41;4943848;28;20032;-79
2021/01/27 11:44:17;;;;;;;32.05;15.88;;;;;;;3.38;54.24;94099.56;4935795;29;20046;-78
2021/01/27 11:46:45;;;;;;;25.85;16.20;;;;;;;3.37;54.33;94105.69;4935413;29;20027;-78
2021/01/27 11:49:12;;;;;;;27.67;17.42;;;;;;;3.45;53.75;94100.31;4911547;29;20035;-78
2021/01/27 11:51:38;;;;;;;26.27;15.80;;;;;;;3.51;53.49;94103.84;4935771;29;20086;-79
2021/01/27 11:54:03;;;;;;;23.83;17.45;;;;;;;3.47;54.07;94092.41;4923117;29;20047;-77
2021/01/27 11:56:29;;;;;;;23.52;13.80;;;;;;;3.34;54.86;94098.38;4916740;29;20038;-78
2021/01/27 12:09:17;;;;;;;;;;;;;;;2.94;57.04;94102.91;4841465;29;20095;-77
2021/01/27 12:11:42;;;;;;;20.80;15.32;;;;;;;3.03;56.37;94111.94;4826849;29;19920;-77
2021/01/27 12:14:08;;;;;;;32.55;18.23;;;;;;;3.01;55.46;94108.78;4899323;29;20033;-77
2021/01/27 12:16:33;;;;;;;32.30;19.83;;;;;;;3.04;55.49;94102.44;4892825;29;20100;-77
2021/01/27 12:18:59;;;;;;;39.72;22.85;;;;;;;2.99;56.71;94106.44;4885428;29;20037;-78
2021/01/27 12:21:24;;;;;;;22.50;13.63;;;;;;;3.16;54.37;94091.34;4886715;29;20037;-78